sensor_id;sensor_type;location;lat;lon;timestamp;P1;durP1;ratioP1;P2;durP2;ratioP2
3379;SDS011;1703;51.964;7.642;2022-09-16T00:00:51;5.57;;;0.90;;
3379;SDS011;1703;51.964;7.642;2022-09-16T00:03:18;2.80;;;1.00;;
3379;SDS011;1703;51.964;7.642;2022-09-16T00:05:46;1.73;;;0.73;;
3379;SDS011;1703;51.964;7.642;2022-09-16T00:08:14;2.20;;;1.00;;
3379;SDS011;1703;51.964;7.642;2022-09-16T00:10:42;2.20;;;0.80;;
3379;SDS011;1703;51.964;7.642;2022-09-16T00:13:09;2.20;;;1.00;;
3379;SDS011;1703;51.964;7.642;2022-09-16T00:15:40;1.40;;;1.30;;
3379;SDS011;1703;51.964;7.642;2022-09-16T00:18:07;3.83;;;0.97;;
3379;SDS011;1703;51.964;7.642;2022-09-16T00:20:35;5.97;;;1.17;;
3379;SDS011;1703;51.964;7.642;2022-09-16T00:23:02;2.50;;;1.10;;
3379;SDS011;1703;51.964;7.642;2022-09-16T00:25:29;2.07;;;0.83;;
3379;SDS011;1703;51.964;7.642;2022-09-16T00:27:58;5.17;;;1.70;;
3379;SDS011;1703;51.964;7.642;2022-09-16T00:30:24;4.40;;;1.03;;
3379;SDS011;1703;51.964;7.642;2022-09-16T00:32:53;3.73;;;0.83;;
3379;SDS011;1703;51.964;7.642;2022-09-16T00:35:19;2.03;;;1.00;;
3379;SDS011;1703;51.964;7.642;2022-09-16T00:37:46;3.80;;;2.80;;
3379;SDS011;1703;51.964;7.642;2022-09-16T00:40:13;3.73;;;0.90;;
3379;SDS011;1703;51.964;7.642;2022-09-16T00:42:40;7.20;;;1.03;;
3379;SDS011;1703;51.964;7.642;2022-09-16T00:45:12;0.80;;;0.77;;
3379;SDS011;1703;51.964;7.642;2022-09-16T00:47:43;2.00;;;0.80;;
3379;SDS011;1703;51.964;7.642;2022-09-16T00:50:16;3.53;;;1.30;;
3379;SDS011;1703;51.964;7.642;2022-09-16T00:52:47;3.43;;;1.13;;
3379;SDS011;1703;51.964;7.642;2022-09-16T00:55:16;4.33;;;1.17;;
3379;SDS011;1703;51.964;7.642;2022-09-16T00:57:46;1.13;;;0.77;;
3379;SDS011;1703;51.964;7.642;2022-09-16T01:00:14;3.10;;;1.13;;
3379;SDS011;1703;51.964;7.642;2022-09-16T01:02:41;3.83;;;1.10;;
3379;SDS011;1703;51.964;7.642;2022-09-16T01:05:11;1.73;;;1.03;;
3379;SDS011;1703;51.964;7.642;2022-09-16T01:07:42;1.90;;;1.13;;
3379;SDS011;1703;51.964;7.642;2022-09-16T01:10:11;3.37;;;1.00;;
3379;SDS011;1703;51.964;7.642;2022-09-16T01:12:38;3.93;;;1.20;;
3379;SDS011;1703;51.964;7.642;2022-09-16T01:15:07;5.03;;;1.60;;
3379;SDS011;1703;51.964;7.642;2022-09-16T01:17:42;1.47;;;0.80;;
3379;SDS011;1703;51.964;7.642;2022-09-16T01:20:28;6.60;;;1.30;;
3379;SDS011;1703;51.964;7.642;2022-09-16T01:29:38;2.50;;;1.50;;
3379;SDS011;1703;51.964;7.642;2022-09-16T01:32:31;4.63;;;1.40;;
3379;SDS011;1703;51.964;7.642;2022-09-16T01:35:06;7.33;;;1.60;;
3379;SDS011;1703;51.964;7.642;2022-09-16T01:37:39;6.63;;;1.93;;
3379;SDS011;1703;51.964;7.642;2022-09-16T01:40:13;4.30;;;1.83;;
3379;SDS011;1703;51.964;7.642;2022-09-16T01:42:48;4.27;;;1.80;;
3379;SDS011;1703;51.964;7.642;2022-09-16T01:45:26;1.77;;;1.40;;
3379;SDS011;1703;51.964;7.642;2022-09-16T01:48:02;3.40;;;1.70;;
3379;SDS011;1703;51.964;7.642;2022-09-16T01:50:36;3.90;;;1.40;;
3379;SDS011;1703;51.964;7.642;2022-09-16T01:53:11;2.77;;;1.80;;
3379;SDS011;1703;51.964;7.642;2022-09-16T01:55:45;1.30;;;1.20;;
3379;SDS011;1703;51.964;7.642;2022-09-16T01:58:16;1.50;;;1.40;;
3379;SDS011;1703;51.964;7.642;2022-09-16T02:00:48;5.60;;;1.63;;
3379;SDS011;1703;51.964;7.642;2022-09-16T02:03:22;4.53;;;1.40;;
3379;SDS011;1703;51.964;7.642;2022-09-16T02:05:52;6.20;;;2.37;;
3379;SDS011;1703;51.964;7.642;2022-09-16T02:08:23;4.40;;;1.33;;
3379;SDS011;1703;51.964;7.642;2022-09-16T02:10:54;2.60;;;1.13;;
3379;SDS011;1703;51.964;7.642;2022-09-16T02:13:24;2.97;;;1.40;;
3379;SDS011;1703;51.964;7.642;2022-09-16T02:15:54;6.73;;;1.20;;
3379;SDS011;1703;51.964;7.642;2022-09-16T02:18:29;5.93;;;1.40;;
3379;SDS011;1703;51.964;7.642;2022-09-16T02:20:59;1.93;;;1.40;;
3379;SDS011;1703;51.964;7.642;2022-09-16T02:23:31;3.27;;;1.27;;
3379;SDS011;1703;51.964;7.642;2022-09-16T02:26:03;3.03;;;1.30;;
3379;SDS011;1703;51.964;7.642;2022-09-16T02:28:33;5.20;;;1.23;;
3379;SDS011;1703;51.964;7.642;2022-09-16T02:31:05;4.63;;;1.10;;
3379;SDS011;1703;51.964;7.642;2022-09-16T02:33:35;0.90;;;0.90;;
3379;SDS011;1703;51.964;7.642;2022-09-16T02:36:06;1.13;;;1.03;;
3379;SDS011;1703;51.964;7.642;2022-09-16T02:38:36;2.20;;;1.30;;
3379;SDS011;1703;51.964;7.642;2022-09-16T02:41:09;2.57;;;1.00;;
3379;SDS011;1703;51.964;7.642;2022-09-16T02:43:39;1.63;;;1.13;;
3379;SDS011;1703;51.964;7.642;2022-09-16T02:46:08;3.60;;;1.60;;
3379;SDS011;1703;51.964;7.642;2022-09-16T02:48:44;5.90;;;1.43;;
3379;SDS011;1703;51.964;7.642;2022-09-16T02:51:22;4.43;;;1.20;;
3379;SDS011;1703;51.964;7.642;2022-09-16T02:53:55;3.50;;;1.50;;
3379;SDS011;1703;51.964;7.642;2022-09-16T02:56:28;1.33;;;1.20;;
3379;SDS011;1703;51.964;7.642;2022-09-16T02:58:57;4.07;;;1.60;;
3379;SDS011;1703;51.964;7.642;2022-09-16T03:01:25;7.90;;;1.20;;
3379;SDS011;1703;51.964;7.642;2022-09-16T03:03:57;7.40;;;1.70;;
3379;SDS011;1703;51.964;7.642;2022-09-16T03:06:24;2.50;;;2.30;;
3379;SDS011;1703;51.964;7.642;2022-09-16T03:08:53;7.03;;;1.97;;
3379;SDS011;1703;51.964;7.642;2022-09-16T03:11:35;4.10;;;1.70;;
3379;SDS011;1703;51.964;7.642;2022-09-16T03:17:31;5.33;;;1.57;;
3379;SDS011;1703;51.964;7.642;2022-09-16T03:20:08;4.77;;;2.00;;
3379;SDS011;1703;51.964;7.642;2022-09-16T03:22:46;5.63;;;2.10;;
3379;SDS011;1703;51.964;7.642;2022-09-16T03:25:21;4.97;;;3.00;;
3379;SDS011;1703;51.964;7.642;2022-09-16T03:27:56;10.70;;;4.33;;
3379;SDS011;1703;51.964;7.642;2022-09-16T03:30:28;4.97;;;2.53;;
3379;SDS011;1703;51.964;7.642;2022-09-16T03:32:59;4.13;;;3.00;;
3379;SDS011;1703;51.964;7.642;2022-09-16T03:35:32;10.53;;;2.90;;
3379;SDS011;1703;51.964;7.642;2022-09-16T03:38:03;8.03;;;2.47;;
3379;SDS011;1703;51.964;7.642;2022-09-16T03:40:33;7.23;;;2.90;;
3379;SDS011;1703;51.964;7.642;2022-09-16T03:43:08;12.30;;;3.60;;
3379;SDS011;1703;51.964;7.642;2022-09-16T03:45:36;4.63;;;2.30;;
3379;SDS011;1703;51.964;7.642;2022-09-16T03:48:04;5.87;;;3.07;;
3379;SDS011;1703;51.964;7.642;2022-09-16T03:50:32;7.73;;;2.83;;
3379;SDS011;1703;51.964;7.642;2022-09-16T03:52:59;11.03;;;4.30;;
3379;SDS011;1703;51.964;7.642;2022-09-16T03:55:26;7.40;;;3.33;;
3379;SDS011;1703;51.964;7.642;2022-09-16T03:57:53;10.47;;;3.40;;
3379;SDS011;1703;51.964;7.642;2022-09-16T04:00:20;9.50;;;3.20;;
3379;SDS011;1703;51.964;7.642;2022-09-16T04:02:47;6.53;;;3.60;;
3379;SDS011;1703;51.964;7.642;2022-09-16T04:05:14;8.80;;;3.37;;
3379;SDS011;1703;51.964;7.642;2022-09-16T04:07:42;7.40;;;3.37;;
3379;SDS011;1703;51.964;7.642;2022-09-16T04:10:09;5.77;;;2.93;;
3379;SDS011;1703;51.964;7.642;2022-09-16T04:12:36;6.03;;;3.13;;
3379;SDS011;1703;51.964;7.642;2022-09-16T04:15:03;5.10;;;2.90;;
3379;SDS011;1703;51.964;7.642;2022-09-16T04:17:31;9.10;;;3.30;;
3379;SDS011;1703;51.964;7.642;2022-09-16T04:19:58;2.90;;;2.67;;
3379;SDS011;1703;51.964;7.642;2022-09-16T04:22:26;8.90;;;2.77;;
3379;SDS011;1703;51.964;7.642;2022-09-16T04:24:54;2.67;;;2.47;;
3379;SDS011;1703;51.964;7.642;2022-09-16T04:27:21;4.30;;;2.57;;
3379;SDS011;1703;51.964;7.642;2022-09-16T04:29:48;3.53;;;2.70;;
3379;SDS011;1703;51.964;7.642;2022-09-16T04:32:15;3.73;;;2.20;;
3379;SDS011;1703;51.964;7.642;2022-09-16T04:34:42;10.57;;;4.80;;
3379;SDS011;1703;51.964;7.642;2022-09-16T04:37:09;2.87;;;2.40;;
3379;SDS011;1703;51.964;7.642;2022-09-16T04:39:35;5.33;;;3.20;;
3379;SDS011;1703;51.964;7.642;2022-09-16T04:42:04;8.13;;;2.63;;
3379;SDS011;1703;51.964;7.642;2022-09-16T04:44:31;5.70;;;2.17;;
3379;SDS011;1703;51.964;7.642;2022-09-16T04:46:57;5.73;;;3.07;;
3379;SDS011;1703;51.964;7.642;2022-09-16T04:49:24;2.77;;;2.03;;
3379;SDS011;1703;51.964;7.642;2022-09-16T04:51:51;5.50;;;1.87;;
3379;SDS011;1703;51.964;7.642;2022-09-16T04:54:18;4.63;;;2.00;;
3379;SDS011;1703;51.964;7.642;2022-09-16T04:56:45;3.13;;;2.03;;
3379;SDS011;1703;51.964;7.642;2022-09-16T04:59:13;9.97;;;1.80;;
3379;SDS011;1703;51.964;7.642;2022-09-16T05:01:40;3.20;;;1.70;;
3379;SDS011;1703;51.964;7.642;2022-09-16T05:04:08;7.27;;;2.03;;
3379;SDS011;1703;51.964;7.642;2022-09-16T05:06:36;2.10;;;1.40;;
3379;SDS011;1703;51.964;7.642;2022-09-16T05:09:05;3.43;;;1.70;;
3379;SDS011;1703;51.964;7.642;2022-09-16T05:11:34;8.90;;;2.00;;
3379;SDS011;1703;51.964;7.642;2022-09-16T05:14:03;4.47;;;2.13;;
3379;SDS011;1703;51.964;7.642;2022-09-16T05:16:33;2.10;;;1.27;;
3379;SDS011;1703;51.964;7.642;2022-09-16T05:19:00;4.33;;;1.30;;
3379;SDS011;1703;51.964;7.642;2022-09-16T05:21:28;2.40;;;0.90;;
3379;SDS011;1703;51.964;7.642;2022-09-16T05:23:59;3.37;;;1.53;;
3379;SDS011;1703;51.964;7.642;2022-09-16T05:26:27;5.23;;;1.20;;
3379;SDS011;1703;51.964;7.642;2022-09-16T05:28:55;3.53;;;0.90;;
3379;SDS011;1703;51.964;7.642;2022-09-16T05:31:25;2.40;;;1.30;;
3379;SDS011;1703;51.964;7.642;2022-09-16T05:33:56;3.50;;;0.90;;
3379;SDS011;1703;51.964;7.642;2022-09-16T05:36:24;1.40;;;1.00;;
3379;SDS011;1703;51.964;7.642;2022-09-16T05:38:51;2.70;;;1.20;;
3379;SDS011;1703;51.964;7.642;2022-09-16T05:41:18;2.73;;;1.00;;
3379;SDS011;1703;51.964;7.642;2022-09-16T05:43:45;1.57;;;1.00;;
3379;SDS011;1703;51.964;7.642;2022-09-16T05:46:15;1.30;;;1.20;;
3379;SDS011;1703;51.964;7.642;2022-09-16T05:48:43;2.10;;;0.73;;
3379;SDS011;1703;51.964;7.642;2022-09-16T05:51:12;2.00;;;1.10;;
3379;SDS011;1703;51.964;7.642;2022-09-16T05:53:40;4.37;;;1.10;;
3379;SDS011;1703;51.964;7.642;2022-09-16T05:56:09;2.93;;;1.33;;
3379;SDS011;1703;51.964;7.642;2022-09-16T05:58:38;4.67;;;0.93;;
3379;SDS011;1703;51.964;7.642;2022-09-16T06:01:06;4.57;;;1.00;;
3379;SDS011;1703;51.964;7.642;2022-09-16T06:03:36;3.53;;;0.97;;
3379;SDS011;1703;51.964;7.642;2022-09-16T06:06:05;2.60;;;1.10;;
3379;SDS011;1703;51.964;7.642;2022-09-16T06:08:38;2.30;;;1.17;;
3379;SDS011;1703;51.964;7.642;2022-09-16T06:11:06;4.43;;;1.23;;
3379;SDS011;1703;51.964;7.642;2022-09-16T06:13:34;3.13;;;0.93;;
3379;SDS011;1703;51.964;7.642;2022-09-16T06:16:02;3.00;;;1.03;;
3379;SDS011;1703;51.964;7.642;2022-09-16T06:18:29;3.93;;;0.97;;
3379;SDS011;1703;51.964;7.642;2022-09-16T06:20:57;3.73;;;1.50;;
3379;SDS011;1703;51.964;7.642;2022-09-16T06:23:27;2.80;;;1.00;;
3379;SDS011;1703;51.964;7.642;2022-09-16T06:25:59;5.57;;;1.47;;
3379;SDS011;1703;51.964;7.642;2022-09-16T06:28:27;4.00;;;1.33;;
3379;SDS011;1703;51.964;7.642;2022-09-16T06:31:00;3.60;;;1.00;;
3379;SDS011;1703;51.964;7.642;2022-09-16T06:33:27;1.83;;;1.47;;
3379;SDS011;1703;51.964;7.642;2022-09-16T06:35:54;5.53;;;1.20;;
3379;SDS011;1703;51.964;7.642;2022-09-16T06:38:22;4.40;;;1.03;;
3379;SDS011;1703;51.964;7.642;2022-09-16T06:40:49;9.50;;;1.53;;
3379;SDS011;1703;51.964;7.642;2022-09-16T06:43:17;6.40;;;1.60;;
3379;SDS011;1703;51.964;7.642;2022-09-16T06:45:44;1.70;;;1.60;;
3379;SDS011;1703;51.964;7.642;2022-09-16T06:48:11;3.03;;;1.50;;
3379;SDS011;1703;51.964;7.642;2022-09-16T06:50:37;3.83;;;1.60;;
3379;SDS011;1703;51.964;7.642;2022-09-16T06:53:04;4.60;;;1.13;;
3379;SDS011;1703;51.964;7.642;2022-09-16T06:55:31;7.30;;;1.70;;
3379;SDS011;1703;51.964;7.642;2022-09-16T06:57:58;6.83;;;1.30;;
3379;SDS011;1703;51.964;7.642;2022-09-16T07:00:26;2.50;;;1.30;;
3379;SDS011;1703;51.964;7.642;2022-09-16T07:02:53;2.27;;;1.10;;
3379;SDS011;1703;51.964;7.642;2022-09-16T07:05:20;3.00;;;0.93;;
3379;SDS011;1703;51.964;7.642;2022-09-16T07:07:47;4.10;;;1.43;;
3379;SDS011;1703;51.964;7.642;2022-09-16T07:10:14;2.43;;;1.50;;
3379;SDS011;1703;51.964;7.642;2022-09-16T07:12:40;1.63;;;0.90;;
3379;SDS011;1703;51.964;7.642;2022-09-16T07:15:07;1.30;;;0.90;;
3379;SDS011;1703;51.964;7.642;2022-09-16T07:17:36;1.73;;;0.90;;
3379;SDS011;1703;51.964;7.642;2022-09-16T07:20:03;1.30;;;1.00;;
3379;SDS011;1703;51.964;7.642;2022-09-16T07:22:30;3.33;;;1.83;;
3379;SDS011;1703;51.964;7.642;2022-09-16T07:24:57;3.40;;;0.90;;
3379;SDS011;1703;51.964;7.642;2022-09-16T07:27:24;2.60;;;0.80;;
3379;SDS011;1703;51.964;7.642;2022-09-16T07:29:51;6.00;;;0.70;;
3379;SDS011;1703;51.964;7.642;2022-09-16T07:32:18;1.30;;;0.80;;
3379;SDS011;1703;51.964;7.642;2022-09-16T07:34:46;1.30;;;0.60;;
3379;SDS011;1703;51.964;7.642;2022-09-16T07:37:13;6.20;;;1.27;;
3379;SDS011;1703;51.964;7.642;2022-09-16T07:39:42;1.67;;;0.80;;
3379;SDS011;1703;51.964;7.642;2022-09-16T07:42:08;3.73;;;1.20;;
3379;SDS011;1703;51.964;7.642;2022-09-16T07:44:35;2.60;;;0.90;;
3379;SDS011;1703;51.964;7.642;2022-09-16T07:47:02;2.20;;;0.63;;
3379;SDS011;1703;51.964;7.642;2022-09-16T07:49:29;2.40;;;1.07;;
3379;SDS011;1703;51.964;7.642;2022-09-16T07:51:57;1.87;;;1.17;;
3379;SDS011;1703;51.964;7.642;2022-09-16T07:54:24;5.20;;;1.20;;
3379;SDS011;1703;51.964;7.642;2022-09-16T07:56:51;1.27;;;0.77;;
3379;SDS011;1703;51.964;7.642;2022-09-16T07:59:18;1.17;;;0.80;;
3379;SDS011;1703;51.964;7.642;2022-09-16T08:01:46;1.77;;;0.73;;
3379;SDS011;1703;51.964;7.642;2022-09-16T08:04:13;4.93;;;1.20;;
3379;SDS011;1703;51.964;7.642;2022-09-16T08:06:41;1.10;;;0.83;;
3379;SDS011;1703;51.964;7.642;2022-09-16T08:09:09;4.30;;;1.03;;
3379;SDS011;1703;51.964;7.642;2022-09-16T08:11:36;3.17;;;0.80;;
3379;SDS011;1703;51.964;7.642;2022-09-16T08:14:03;2.37;;;1.40;;
3379;SDS011;1703;51.964;7.642;2022-09-16T08:16:30;2.70;;;0.90;;
3379;SDS011;1703;51.964;7.642;2022-09-16T08:18:57;1.87;;;0.80;;
3379;SDS011;1703;51.964;7.642;2022-09-16T08:21:25;6.23;;;0.73;;
3379;SDS011;1703;51.964;7.642;2022-09-16T08:23:53;8.23;;;1.43;;
3379;SDS011;1703;51.964;7.642;2022-09-16T08:26:22;3.60;;;0.80;;
3379;SDS011;1703;51.964;7.642;2022-09-16T08:28:50;2.30;;;1.00;;
3379;SDS011;1703;51.964;7.642;2022-09-16T08:31:18;2.83;;;1.07;;
3379;SDS011;1703;51.964;7.642;2022-09-16T08:33:45;1.50;;;0.90;;
3379;SDS011;1703;51.964;7.642;2022-09-16T08:36:13;1.53;;;0.70;;
3379;SDS011;1703;51.964;7.642;2022-09-16T08:38:44;2.83;;;1.07;;
3379;SDS011;1703;51.964;7.642;2022-09-16T08:41:23;0.97;;;0.60;;
3379;SDS011;1703;51.964;7.642;2022-09-16T08:44:00;0.90;;;0.70;;
3379;SDS011;1703;51.964;7.642;2022-09-16T08:46:38;2.50;;;1.10;;
3379;SDS011;1703;51.964;7.642;2022-09-16T08:49:14;4.30;;;0.87;;
3379;SDS011;1703;51.964;7.642;2022-09-16T08:51:43;3.10;;;1.00;;
3379;SDS011;1703;51.964;7.642;2022-09-16T08:54:12;3.27;;;0.93;;
3379;SDS011;1703;51.964;7.642;2022-09-16T08:56:48;3.67;;;1.07;;
3379;SDS011;1703;51.964;7.642;2022-09-16T08:59:16;7.07;;;1.50;;
3379;SDS011;1703;51.964;7.642;2022-09-16T09:01:48;7.30;;;1.63;;
3379;SDS011;1703;51.964;7.642;2022-09-16T09:04:17;12.47;;;1.90;;
3379;SDS011;1703;51.964;7.642;2022-09-16T09:06:47;14.73;;;2.37;;
3379;SDS011;1703;51.964;7.642;2022-09-16T09:09:30;5.20;;;1.33;;
3379;SDS011;1703;51.964;7.642;2022-09-16T09:12:14;4.47;;;1.37;;
3379;SDS011;1703;51.964;7.642;2022-09-16T09:14:53;1.00;;;0.90;;
3379;SDS011;1703;51.964;7.642;2022-09-16T09:17:33;7.60;;;1.00;;
3379;SDS011;1703;51.964;7.642;2022-09-16T09:20:11;2.60;;;1.17;;
3379;SDS011;1703;51.964;7.642;2022-09-16T09:22:49;15.00;;;1.57;;
3379;SDS011;1703;51.964;7.642;2022-09-16T09:25:29;6.87;;;1.97;;
3379;SDS011;1703;51.964;7.642;2022-09-16T09:28:04;4.87;;;1.23;;
3379;SDS011;1703;51.964;7.642;2022-09-16T09:30:48;3.80;;;0.90;;
3379;SDS011;1703;51.964;7.642;2022-09-16T09:33:24;4.30;;;1.23;;
3379;SDS011;1703;51.964;7.642;2022-09-16T09:41:52;2.10;;;1.00;;
3379;SDS011;1703;51.964;7.642;2022-09-16T09:44:27;9.20;;;1.70;;
3379;SDS011;1703;51.964;7.642;2022-09-16T09:47:07;7.20;;;1.53;;
3379;SDS011;1703;51.964;7.642;2022-09-16T09:49:38;6.57;;;1.13;;
3379;SDS011;1703;51.964;7.642;2022-09-16T09:52:12;5.03;;;1.10;;
3379;SDS011;1703;51.964;7.642;2022-09-16T09:54:42;5.27;;;1.50;;
3379;SDS011;1703;51.964;7.642;2022-09-16T09:57:16;7.07;;;1.30;;
3379;SDS011;1703;51.964;7.642;2022-09-16T09:59:49;6.93;;;1.13;;
3379;SDS011;1703;51.964;7.642;2022-09-16T10:02:23;5.43;;;2.20;;
3379;SDS011;1703;51.964;7.642;2022-09-16T10:04:50;2.50;;;0.97;;
3379;SDS011;1703;51.964;7.642;2022-09-16T10:07:18;10.33;;;1.87;;
3379;SDS011;1703;51.964;7.642;2022-09-16T10:09:47;7.70;;;1.90;;
3379;SDS011;1703;51.964;7.642;2022-09-16T10:12:24;4.50;;;2.67;;
3379;SDS011;1703;51.964;7.642;2022-09-16T10:14:54;6.00;;;1.10;;
3379;SDS011;1703;51.964;7.642;2022-09-16T10:17:21;9.37;;;1.70;;
3379;SDS011;1703;51.964;7.642;2022-09-16T10:19:49;2.90;;;1.20;;
3379;SDS011;1703;51.964;7.642;2022-09-16T10:22:18;4.40;;;1.10;;
3379;SDS011;1703;51.964;7.642;2022-09-16T10:24:52;4.00;;;1.40;;
3379;SDS011;1703;51.964;7.642;2022-09-16T10:27:21;7.67;;;1.17;;
3379;SDS011;1703;51.964;7.642;2022-09-16T10:30:11;6.80;;;1.73;;
3379;SDS011;1703;51.964;7.642;2022-09-16T10:32:46;6.10;;;1.17;;
3379;SDS011;1703;51.964;7.642;2022-09-16T10:35:16;5.10;;;1.00;;
3379;SDS011;1703;51.964;7.642;2022-09-16T10:37:55;10.30;;;1.20;;
3379;SDS011;1703;51.964;7.642;2022-09-16T10:40:24;6.60;;;1.80;;
3379;SDS011;1703;51.964;7.642;2022-09-16T10:42:52;1.37;;;1.10;;
3379;SDS011;1703;51.964;7.642;2022-09-16T10:45:29;5.93;;;0.93;;
3379;SDS011;1703;51.964;7.642;2022-09-16T10:47:59;8.00;;;0.97;;
3379;SDS011;1703;51.964;7.642;2022-09-16T10:50:29;3.77;;;0.97;;
3379;SDS011;1703;51.964;7.642;2022-09-16T10:52:56;6.20;;;1.00;;
3379;SDS011;1703;51.964;7.642;2022-09-16T10:55:27;4.67;;;1.50;;
3379;SDS011;1703;51.964;7.642;2022-09-16T10:58:06;6.27;;;1.60;;
3379;SDS011;1703;51.964;7.642;2022-09-16T11:00:38;2.00;;;0.90;;
3379;SDS011;1703;51.964;7.642;2022-09-16T11:06:32;4.97;;;1.37;;
3379;SDS011;1703;51.964;7.642;2022-09-16T11:09:19;4.97;;;1.87;;
3379;SDS011;1703;51.964;7.642;2022-09-16T11:11:57;2.70;;;0.80;;
3379;SDS011;1703;51.964;7.642;2022-09-16T11:14:35;3.73;;;1.27;;
3379;SDS011;1703;51.964;7.642;2022-09-16T11:17:18;2.23;;;0.90;;
3379;SDS011;1703;51.964;7.642;2022-09-16T11:20:03;1.50;;;0.87;;
3379;SDS011;1703;51.964;7.642;2022-09-16T11:22:44;2.10;;;1.17;;
3379;SDS011;1703;51.964;7.642;2022-09-16T11:25:19;2.47;;;1.10;;
3379;SDS011;1703;51.964;7.642;2022-09-16T11:27:53;2.93;;;0.60;;
3379;SDS011;1703;51.964;7.642;2022-09-16T11:30:29;3.27;;;1.27;;
3379;SDS011;1703;51.964;7.642;2022-09-16T11:33:05;4.17;;;0.90;;
3379;SDS011;1703;51.964;7.642;2022-09-16T11:35:55;6.13;;;1.80;;
3379;SDS011;1703;51.964;7.642;2022-09-16T11:38:34;3.30;;;0.90;;
3379;SDS011;1703;51.964;7.642;2022-09-16T11:41:08;5.07;;;0.90;;
3379;SDS011;1703;51.964;7.642;2022-09-16T11:43:47;3.13;;;0.73;;
3379;SDS011;1703;51.964;7.642;2022-09-16T11:46:28;6.00;;;1.10;;
3379;SDS011;1703;51.964;7.642;2022-09-16T11:49:11;7.53;;;1.10;;
3379;SDS011;1703;51.964;7.642;2022-09-16T11:51:53;6.53;;;1.30;;
3379;SDS011;1703;51.964;7.642;2022-09-16T11:54:31;3.47;;;0.87;;
3379;SDS011;1703;51.964;7.642;2022-09-16T11:57:10;6.63;;;1.27;;
3379;SDS011;1703;51.964;7.642;2022-09-16T11:59:44;3.33;;;0.90;;
3379;SDS011;1703;51.964;7.642;2022-09-16T12:02:18;4.20;;;1.17;;
3379;SDS011;1703;51.964;7.642;2022-09-16T12:04:52;6.43;;;1.20;;
3379;SDS011;1703;51.964;7.642;2022-09-16T12:07:24;4.17;;;1.27;;
3379;SDS011;1703;51.964;7.642;2022-09-16T12:09:57;2.10;;;1.10;;
3379;SDS011;1703;51.964;7.642;2022-09-16T12:12:31;4.47;;;1.10;;
3379;SDS011;1703;51.964;7.642;2022-09-16T12:15:02;3.20;;;0.90;;
3379;SDS011;1703;51.964;7.642;2022-09-16T12:17:32;2.73;;;1.30;;
3379;SDS011;1703;51.964;7.642;2022-09-16T12:20:04;2.90;;;0.90;;
3379;SDS011;1703;51.964;7.642;2022-09-16T12:22:40;6.53;;;0.90;;
3379;SDS011;1703;51.964;7.642;2022-09-16T12:25:11;3.70;;;1.23;;
3379;SDS011;1703;51.964;7.642;2022-09-16T12:27:43;6.53;;;0.90;;
3379;SDS011;1703;51.964;7.642;2022-09-16T12:30:17;6.33;;;1.33;;
3379;SDS011;1703;51.964;7.642;2022-09-16T12:32:53;18.83;;;1.63;;
3379;SDS011;1703;51.964;7.642;2022-09-16T12:35:27;5.50;;;1.13;;
3379;SDS011;1703;51.964;7.642;2022-09-16T12:37:58;3.87;;;1.00;;
3379;SDS011;1703;51.964;7.642;2022-09-16T12:40:26;6.20;;;1.43;;
3379;SDS011;1703;51.964;7.642;2022-09-16T12:45:53;4.40;;;1.10;;
3379;SDS011;1703;51.964;7.642;2022-09-16T12:51:47;1.93;;;0.80;;
3379;SDS011;1703;51.964;7.642;2022-09-16T12:54:39;6.30;;;0.90;;
3379;SDS011;1703;51.964;7.642;2022-09-16T12:57:21;4.13;;;0.87;;
3379;SDS011;1703;51.964;7.642;2022-09-16T13:00:04;4.97;;;0.90;;
3379;SDS011;1703;51.964;7.642;2022-09-16T13:02:37;4.60;;;1.20;;
3379;SDS011;1703;51.964;7.642;2022-09-16T13:05:13;3.00;;;0.80;;
3379;SDS011;1703;51.964;7.642;2022-09-16T13:07:48;3.57;;;1.13;;
3379;SDS011;1703;51.964;7.642;2022-09-16T13:10:18;3.77;;;1.00;;
3379;SDS011;1703;51.964;7.642;2022-09-16T13:12:55;7.23;;;1.10;;
3379;SDS011;1703;51.964;7.642;2022-09-16T13:15:26;3.83;;;1.10;;
3379;SDS011;1703;51.964;7.642;2022-09-16T13:17:54;3.63;;;1.10;;
3379;SDS011;1703;51.964;7.642;2022-09-16T13:20:22;2.17;;;1.10;;
3379;SDS011;1703;51.964;7.642;2022-09-16T13:23:01;3.10;;;1.17;;
3379;SDS011;1703;51.964;7.642;2022-09-16T13:25:33;3.10;;;1.63;;
3379;SDS011;1703;51.964;7.642;2022-09-16T13:28:21;4.17;;;1.20;;
3379;SDS011;1703;51.964;7.642;2022-09-16T13:30:52;3.73;;;1.83;;
3379;SDS011;1703;51.964;7.642;2022-09-16T13:33:23;3.30;;;1.17;;
3379;SDS011;1703;51.964;7.642;2022-09-16T13:36:12;7.43;;;3.20;;
3379;SDS011;1703;51.964;7.642;2022-09-16T13:38:57;4.20;;;1.37;;
3379;SDS011;1703;51.964;7.642;2022-09-16T13:41:32;3.03;;;1.17;;
3379;SDS011;1703;51.964;7.642;2022-09-16T13:44:01;11.93;;;1.80;;
3379;SDS011;1703;51.964;7.642;2022-09-16T13:47:14;3.43;;;1.33;;
3379;SDS011;1703;51.964;7.642;2022-09-16T13:49:44;15.27;;;2.03;;
3379;SDS011;1703;51.964;7.642;2022-09-16T13:52:15;6.70;;;1.30;;
3379;SDS011;1703;51.964;7.642;2022-09-16T13:54:47;3.67;;;1.10;;
3379;SDS011;1703;51.964;7.642;2022-09-16T13:57:20;7.53;;;1.70;;
3379;SDS011;1703;51.964;7.642;2022-09-16T14:00:05;7.40;;;1.40;;
3379;SDS011;1703;51.964;7.642;2022-09-16T14:05:34;11.63;;;1.70;;
3379;SDS011;1703;51.964;7.642;2022-09-16T14:08:21;8.90;;;1.40;;
3379;SDS011;1703;51.964;7.642;2022-09-16T14:10:59;17.30;;;1.50;;
3379;SDS011;1703;51.964;7.642;2022-09-16T14:13:34;5.40;;;1.53;;
3379;SDS011;1703;51.964;7.642;2022-09-16T14:16:08;3.63;;;1.60;;
3379;SDS011;1703;51.964;7.642;2022-09-16T14:18:41;3.30;;;1.10;;
3379;SDS011;1703;51.964;7.642;2022-09-16T14:21:17;16.67;;;1.93;;
3379;SDS011;1703;51.964;7.642;2022-09-16T14:23:45;4.43;;;1.57;;
3379;SDS011;1703;51.964;7.642;2022-09-16T14:26:14;11.53;;;1.40;;
3379;SDS011;1703;51.964;7.642;2022-09-16T14:28:42;5.17;;;2.13;;
3379;SDS011;1703;51.964;7.642;2022-09-16T14:31:11;11.10;;;2.20;;
3379;SDS011;1703;51.964;7.642;2022-09-16T14:33:42;5.57;;;1.00;;
3379;SDS011;1703;51.964;7.642;2022-09-16T14:36:13;2.13;;;1.00;;
3379;SDS011;1703;51.964;7.642;2022-09-16T14:38:46;9.67;;;1.37;;
3379;SDS011;1703;51.964;7.642;2022-09-16T14:41:18;7.77;;;1.20;;
3379;SDS011;1703;51.964;7.642;2022-09-16T14:43:50;6.80;;;1.17;;
3379;SDS011;1703;51.964;7.642;2022-09-16T14:46:19;3.53;;;1.47;;
3379;SDS011;1703;51.964;7.642;2022-09-16T14:48:46;7.70;;;1.53;;
3379;SDS011;1703;51.964;7.642;2022-09-16T14:51:17;3.27;;;1.10;;
3379;SDS011;1703;51.964;7.642;2022-09-16T14:53:52;4.60;;;0.93;;
3379;SDS011;1703;51.964;7.642;2022-09-16T14:56:22;11.20;;;1.87;;
3379;SDS011;1703;51.964;7.642;2022-09-16T14:58:50;7.87;;;1.40;;
3379;SDS011;1703;51.964;7.642;2022-09-16T15:01:20;2.90;;;1.00;;
3379;SDS011;1703;51.964;7.642;2022-09-16T15:03:52;6.03;;;1.63;;
3379;SDS011;1703;51.964;7.642;2022-09-16T15:06:23;3.13;;;1.20;;
3379;SDS011;1703;51.964;7.642;2022-09-16T15:08:54;4.63;;;1.77;;
3379;SDS011;1703;51.964;7.642;2022-09-16T15:11:26;6.50;;;1.30;;
3379;SDS011;1703;51.964;7.642;2022-09-16T15:13:57;3.40;;;1.60;;
3379;SDS011;1703;51.964;7.642;2022-09-16T15:16:25;7.60;;;1.87;;
3379;SDS011;1703;51.964;7.642;2022-09-16T15:18:54;5.20;;;1.23;;
3379;SDS011;1703;51.964;7.642;2022-09-16T15:21:24;3.83;;;1.37;;
3379;SDS011;1703;51.964;7.642;2022-09-16T15:23:53;5.87;;;1.37;;
3379;SDS011;1703;51.964;7.642;2022-09-16T15:26:22;4.93;;;1.30;;
3379;SDS011;1703;51.964;7.642;2022-09-16T15:28:53;9.90;;;1.40;;
3379;SDS011;1703;51.964;7.642;2022-09-16T15:31:25;6.63;;;1.33;;
3379;SDS011;1703;51.964;7.642;2022-09-16T15:33:53;4.70;;;1.87;;
3379;SDS011;1703;51.964;7.642;2022-09-16T15:36:32;2.23;;;0.70;;
3379;SDS011;1703;51.964;7.642;2022-09-16T15:39:01;5.43;;;0.83;;
3379;SDS011;1703;51.964;7.642;2022-09-16T15:41:28;4.30;;;1.30;;
3379;SDS011;1703;51.964;7.642;2022-09-16T15:43:57;7.37;;;1.37;;
3379;SDS011;1703;51.964;7.642;2022-09-16T15:46:26;6.13;;;1.23;;
3379;SDS011;1703;51.964;7.642;2022-09-16T15:48:54;2.10;;;1.10;;
3379;SDS011;1703;51.964;7.642;2022-09-16T15:51:29;3.60;;;1.03;;
3379;SDS011;1703;51.964;7.642;2022-09-16T15:54:00;11.20;;;1.00;;
3379;SDS011;1703;51.964;7.642;2022-09-16T15:56:33;1.97;;;1.10;;
3379;SDS011;1703;51.964;7.642;2022-09-16T15:59:18;5.60;;;1.20;;
3379;SDS011;1703;51.964;7.642;2022-09-16T16:01:50;7.33;;;1.43;;
3379;SDS011;1703;51.964;7.642;2022-09-16T16:04:21;4.07;;;0.90;;
3379;SDS011;1703;51.964;7.642;2022-09-16T16:06:52;2.40;;;1.43;;
3379;SDS011;1703;51.964;7.642;2022-09-16T16:09:29;2.17;;;0.90;;